Latest Weather Observations for Yarrawonga

IDN60801

Issued at 5:32 pm EST Sunday 29 May 2016 (issued every 30 minutes, with the page automatically refreshed every 10 minutes)

About weather observations | Map of weather stations | Latest weather observations for NSW | Other Formats
Station Details ID: 081124 Name: YARRAWONGA Lat: -36.03 Lon: 146.03 Height: 128.9 m
Data from the previous 72 hours. | See also: Recent months at Yarrawonga
Date/Time
EST
Temp
°C
App
Temp
°C
Dew
Point
Rel
Hum
%
Delta-T
°C
Wind Press
QNH
hPa
Press
MSL
hPa
Rain
since 9 am
mm
Dir
 
Spd
km/h
Gust
km/h
Spd
kts
Gust
kts
29/05:30pm 8.9 7.3 6.2 83 1.2 W 4 6 2 3 1021.1 1021.2 0.0
29/05:00pm 10.0 8.0 6.2 77 1.8 W 6 7 3 4 1020.9 1021.0 0.0
29/04:30pm 10.9 8.4 6.5 74 2.1 SW 9 13 5 7 1020.6 1020.7 0.0
29/04:00pm 12.3 9.0 6.6 68 2.7 SW 13 17 7 9 1020.5 1020.6 0.0
29/03:30pm 12.7 9.8 6.7 67 2.9 SW 11 17 6 9 1020.3 1020.4 0.0
29/03:00pm 12.9 8.8 6.3 64 3.1 SW 17 24 9 13 1020.1 1020.2 0.0
29/02:30pm 12.7 8.3 6.5 66 3.0 SW 19 26 10 14 1020.1 1020.2 0.0
29/02:00pm 12.3 7.8 5.9 65 3.0 SW 19 26 10 14 1019.9 1020.0 0.0
29/01:30pm 13.2 8.9 6.8 65 3.1 SW 19 24 10 13 1020.0 1020.1 0.0
29/01:00pm 12.8 8.2 6.6 66 3.0 WSW 20 28 11 15 1020.3 1020.4 0.0
29/12:30pm 12.4 7.8 6.7 68 2.7 SW 20 24 11 13 1020.4 1020.5 0.0
29/12:00pm 12.2 7.9 6.9 70 2.5 SW 19 26 10 14 1020.6 1020.7 0.0
29/11:30am 11.7 7.3 6.4 70 2.5 SW 19 24 10 13 1020.7 1020.8 0.0
29/11:00am 10.8 7.6 6.9 77 1.9 WSW 13 17 7 9 1020.9 1021.0 0.0
29/10:30am 9.4 5.4 6.5 82 1.4 WSW 17 20 9 11 1020.9 1021.0 0.0
29/10:00am 8.4 5.1 6.2 86 1.0 WSW 13 17 7 9 1020.9 1021.0 0.0
29/09:30am 7.3 4.2 5.6 89 0.8 W 11 15 6 8 1020.4 1020.5 0.0
29/09:00am 6.0 2.8 5.0 93 0.4 WSW 11 17 6 9 1020.1 1020.2 0.4
29/08:30am 5.0 2.4 4.4 96 0.3 WSW 7 9 4 5 1019.8 1019.9 0.4
29/08:00am 3.9 0.8 3.8 99 0.0 W 9 11 5 6 1019.3 1019.4 0.4
29/07:30am 3.0 0.3 2.9 99 0.0 W 6 7 3 4 1019.2 1019.3 0.4
29/07:00am 2.5 -0.4 2.4 99 0.0 WSW 7 7 4 4 1018.8 1018.8 0.4
29/06:30am 2.9 0.2 2.8 99 0.0 W 6 7 3 4 1018.4 1018.4 0.4
29/06:00am 2.7 0.0 2.4 98 0.1 W 6 7 3 4 1018.4 1018.4 0.4
29/05:30am 2.8 0.1 2.5 98 0.1 WSW 6 7 3 4 1018.2 1018.2 0.2
29/05:00am 3.4 0.8 3.1 98 0.1 WSW 6 7 3 4 1018.0 1018.0 0.2
29/04:30am 4.1 1.0 3.8 98 0.1 W 9 11 5 6 1017.8 1017.8 0.2
29/04:00am 4.2 1.5 3.9 98 0.1 W 7 9 4 5 1017.6 1017.6 0.2
29/03:30am 4.3 1.6 3.7 96 0.3 WSW 7 9 4 5 1017.4 1017.4 0.2
29/03:00am 5.4 2.9 4.7 95 0.3 W 7 9 4 5 1017.5 1017.5 0.2
29/02:30am 5.8 2.9 4.9 94 0.4 WSW 9 11 5 6 1017.3 1017.3 0.2
29/02:00am 6.3 2.8 5.4 94 0.4 WSW 13 13 7 7 1017.2 1017.2 0.2
29/01:30am 5.5 3.0 4.9 96 0.3 SW 7 9 4 5 1017.1 1017.1 0.2
29/01:00am 6.4 3.3 5.4 93 0.4 WSW 11 13 6 7 1016.9 1016.9 0.2
29/12:30am 7.3 4.3 5.9 91 0.6 SW 11 13 6 7 1016.8 1016.8 0.2
29/12:00am 7.2 4.6 6.1 93 0.5 SW 9 11 5 6 1016.7 1016.7 0.2
 
Date/Time
EST
Temp
°C
App
Temp
°C
Dew
Point
Rel
Hum
%
Delta-T
°C
Wind Press
QNH
hPa
Press
MSL
hPa
Rain
since 9 am
mm
Dir
 
Spd
km/h
Gust
km/h
Spd
kts
Gust
kts
28/11:30pm 8.1 4.4 6.4 89 0.8 SW 15 19 8 10 1016.5 1016.5 0.2
28/11:00pm 7.0 4.3 5.8 92 0.5 SSW 9 13 5 7 1016.3 1016.3 0.2
28/10:30pm 6.1 3.9 5.5 96 0.3 WSW 6 7 3 4 1016.2 1016.2 0.0
28/10:00pm 7.0 4.5 6.4 96 0.3 W 9 11 5 6 1016.0 1016.0 0.0
28/09:30pm 6.8 4.8 6.1 95 0.3 WSW 6 6 3 3 1015.9 1015.9 0.0
28/09:00pm 7.7 4.4 6.6 93 0.5 WSW 13 17 7 9 1015.7 1015.7 0.0
28/08:30pm 8.0 4.4 6.9 93 0.5 WSW 15 19 8 10 1015.5 1015.5 0.0
28/08:00pm 8.4 4.9 7.2 92 0.6 SW 15 19 8 10 1015.2 1015.2 0.0
28/07:30pm 8.0 5.6 6.9 93 0.5 SW 9 11 5 6 1014.8 1014.9 0.0
28/07:00pm 9.0 5.1 7.0 87 0.9 SW 17 20 9 11 1014.4 1014.5 0.0
28/06:30pm 9.9 5.5 7.3 84 1.2 SW 20 26 11 14 1013.9 1014.0 0.0
28/06:00pm 10.5 5.8 7.6 82 1.4 SW 22 32 12 17 1013.4 1013.5 0.0
28/05:30pm 11.2 6.5 7.9 80 1.6 SW 22 28 12 15 1012.9 1013.0 0.0
28/05:00pm 11.2 7.0 8.2 82 1.5 WSW 20 24 11 13 1012.5 1012.6 0.0
28/04:30pm 12.4 8.0 7.5 72 2.4 SW 20 26 11 14 1011.8 1011.8 0.0
28/04:00pm 13.1 8.2 6.7 65 3.1 SW 22 30 12 16 1011.5 1011.5 0.0
28/03:30pm 13.4 7.3 6.5 63 3.3 SW 28 35 15 19 1011.0 1011.0 0.0
28/03:00pm 13.6 7.6 6.9 64 3.3 SW 28 35 15 19 1010.5 1010.5 0.0
28/02:30pm 13.6 7.6 7.2 65 3.1 SW 28 37 15 20 1010.2 1010.2 0.0
28/02:00pm 13.7 8.6 7.5 66 3.1 SW 24 32 13 17 1009.8 1009.8 0.0
28/01:30pm 12.8 7.7 7.7 71 2.5 SW 24 32 13 17 1009.9 1009.9 0.0
28/01:00pm 13.3 8.4 7.1 66 3.0 SW 22 32 12 17 1009.8 1009.8 0.0
28/12:30pm 13.1 9.3 7.5 69 2.8 SW 17 22 9 12 1009.7 1009.7 0.0
28/12:00pm 12.7 8.8 7.2 69 2.7 SSW 17 24 9 13 1009.6 1009.6 0.0
28/11:30am 12.7 8.3 7.6 71 2.5 SSW 20 28 11 15 1009.8 1009.8 0.0
28/11:00am 12.1 8.6 7.2 72 2.4 SW 15 22 8 12 1009.8 1009.8 0.0
28/10:30am 11.1 6.7 6.5 73 2.2 SSW 19 24 10 13 1009.9 1009.9 0.0
28/10:00am 10.9 8.2 7.2 78 1.8 SSW 11 17 6 9 1009.7 1009.7 0.0
28/09:30am 9.8 7.2 7.6 86 1.1 SW 11 13 6 7 1009.5 1009.5 0.0
28/09:00am 9.3 7.7 7.9 91 0.7 SSW 6 6 3 3 1009.3 1009.3 4.0
28/08:30am 8.6 6.7 7.5 93 0.5 S 7 9 4 5 1009.0 1009.0 4.0
28/08:00am 8.3 6.4 7.5 95 0.4 SSW 7 9 4 5 1008.7 1008.7 4.0
28/07:30am 8.3 6.6 7.5 95 0.4 S 6 7 3 4 1008.2 1008.2 4.0
28/07:00am 8.2 6.5 7.6 96 0.3 SSE 6 6 3 3 1007.7 1007.7 4.0
28/06:30am 8.0 6.0 7.2 95 0.4 SSE 7 11 4 6 1007.2 1007.2 4.0
28/06:00am 7.9 5.6 7.3 96 0.3 SSE 9 15 5 8 1006.9 1006.9 4.0
28/05:30am 7.7 5.7 7.0 95 0.3 SE 7 11 4 6 1006.5 1006.6 4.0
28/05:00am 7.5 4.7 6.9 96 0.3 SE 11 15 6 8 1006.4 1006.5 4.0
28/04:30am 7.4 5.0 6.8 96 0.3 ESE 9 17 5 9 1006.2 1006.3 4.0
28/04:00am 7.6 5.3 7.3 98 0.1 ESE 9 15 5 8 1006.1 1006.2 4.0
28/03:30am 7.7 5.8 7.4 98 0.1 ESE 7 11 4 6 1006.1 1006.2 3.8
28/03:00am 7.8 5.1 7.4 97 0.2 ESE 11 13 6 7 1006.3 1006.4 3.2
28/02:30am 7.8 5.1 7.4 97 0.2 ESE 11 17 6 9 1006.3 1006.4 2.8
28/02:00am 7.7 4.6 7.3 97 0.2 E 13 19 7 10 1006.2 1006.3 2.4
28/01:30am 7.6 4.8 7.0 96 0.3 ESE 11 17 6 9 1006.4 1006.5 2.0
28/01:00am 7.9 5.1 7.1 95 0.4 ESE 11 15 6 8 1006.4 1006.5 0.8
28/12:30am 8.4 5.3 7.3 93 0.5 E 13 17 7 9 1006.9 1006.9 0.2
28/12:00am 8.4 5.7 7.3 93 0.5 ENE 11 13 6 7 1007.5 1007.5 0.2
 
Date/Time
EST
Temp
°C
App
Temp
°C
Dew
Point
Rel
Hum
%
Delta-T
°C
Wind Press
QNH
hPa
Press
MSL
hPa
Rain
since 9 am
mm
Dir
 
Spd
km/h
Gust
km/h
Spd
kts
Gust
kts
27/11:30pm 8.4 6.4 7.0 91 0.7 ENE 7 9 4 5 1007.7 1007.7 0.0
27/11:00pm 7.7 5.6 6.6 93 0.5 ENE 7 9 4 5 1007.6 1007.6 0.0
27/10:30pm 8.2 5.4 6.8 91 0.7 ENE 11 13 6 7 1007.5 1007.5 0.0
27/10:00pm 7.9 5.7 6.4 90 0.7 NE 7 11 4 6 1007.9 1007.9 0.0
27/09:30pm 8.0 5.9 6.5 90 0.7 NE 7 9 4 5 1008.1 1008.1 0.0
27/09:00pm 7.6 5.6 6.2 91 0.6 NE 6 6 3 3 1008.2 1008.2 0.0
27/08:30pm 7.9 5.7 6.2 89 0.8 NE 7 9 4 5 1008.4 1008.4 0.0
27/08:00pm 8.4 6.5 6.5 88 0.9 NE 6 7 3 4 1008.5 1008.5 0.0
27/07:30pm 8.5 6.5 7.3 92 0.6 NE 7 9 4 5 1008.4 1008.4 0.0
27/07:00pm 9.2 7.3 6.8 85 1.1 NE 6 6 3 3 1008.2 1008.2 0.0
27/06:30pm 8.5 7.3 6.6 88 0.9 N 2 4 1 2 1008.2 1008.2 0.0
27/06:00pm 9.2 7.7 7.0 86 1.0 NNW 4 4 2 2 1008.3 1008.3 0.0
27/05:30pm 10.2 9.0 6.4 77 1.8 NW 2 2 1 1 1008.1 1008.1 0.0
27/05:00pm 11.6 10.2 7.3 75 2.1 WNW 4 7 2 4 1008.1 1008.1 0.0
27/04:30pm 12.5 10.9 7.8 73 2.3 WSW 6 9 3 5 1007.8 1007.8 0.0
27/04:00pm 12.8 9.5 6.6 66 3.0 W 13 19 7 10 1007.7 1007.7 0.0
27/03:30pm 13.3 9.9 7.5 68 2.9 SW 15 19 8 10 1007.8 1007.8 0.0
27/03:00pm 12.6 9.4 6.9 68 2.8 W 13 17 7 9 1007.7 1007.7 0.0
27/02:30pm 12.3 8.5 7.4 72 2.4 WSW 17 24 9 13 1007.6 1007.6 0.0
27/02:00pm 12.6 9.6 7.9 73 2.3 SW 13 20 7 11 1007.6 1007.6 0.0
27/01:30pm 12.2 9.4 8.7 79 1.8 SW 13 20 7 11 1007.8 1007.8 0.0
27/01:00pm 12.8 8.9 8.7 76 2.1 WSW 19 22 10 12 1008.0 1008.0 0.0
27/12:30pm 12.4 8.6 9.2 81 1.6 WSW 19 24 10 13 1008.0 1008.0 0.0
27/12:00pm 11.9 8.0 8.6 80 1.7 WSW 19 26 10 14 1008.4 1008.4 0.0
27/11:30am 11.6 7.7 8.8 83 1.4 WSW 19 26 10 14 1008.7 1008.7 0.0
27/11:00am 11.0 7.5 8.8 86 1.1 WSW 17 24 9 13 1008.8 1008.8 0.0
27/10:30am 10.2 6.9 8.1 87 1.0 WSW 15 20 8 11 1009.2 1009.2 0.0
27/10:00am 9.3 6.3 7.7 90 0.8 WSW 13 17 7 9 1009.1 1009.1 0.0
27/09:30am 8.3 5.5 7.1 92 0.6 WSW 11 17 6 9 1009.1 1009.1 0.0
27/09:00am 7.1 3.8 6.4 95 0.3 W 13 17 7 9 1009.1 1009.1 5.2
27/08:30am 6.3 3.2 5.7 96 0.3 W 11 15 6 8 1009.0 1009.0 5.2
27/08:00am 5.8 3.0 5.2 96 0.3 WSW 9 13 5 7 1008.8 1008.8 5.2
27/07:30am 5.1 1.8 4.7 97 0.2 W 11 13 6 7 1008.5 1008.5 5.2
27/07:00am 5.1 1.4 4.7 97 0.2 W 13 17 7 9 1008.3 1008.3 5.2
27/06:30am 5.3 1.7 4.9 97 0.2 W 13 17 7 9 1008.1 1008.1 5.2
27/06:00am 5.5 1.9 5.1 97 0.2 W 13 15 7 8 1008.0 1008.0 5.2
27/05:30am 5.6 2.4 5.2 97 0.2 W 11 17 6 9 1007.9 1007.9 5.2
27/05:00am 5.7 2.2 5.3 97 0.2 W 13 15 7 8 1007.9 1007.9 5.2
27/04:30am 5.8 2.7 5.4 97 0.2 W 11 13 6 7 1007.7 1007.7 5.2
27/04:00am 6.0 2.5 5.6 97 0.2 W 13 17 7 9 1007.6 1007.6 5.0
27/03:30am 6.1 2.6 5.5 96 0.3 W 13 15 7 8 1007.6 1007.6 5.0
27/03:00am 6.4 3.0 5.8 96 0.3 W 13 17 7 9 1007.6 1007.6 5.0
27/02:30am 6.6 3.2 5.9 95 0.3 W 13 19 7 10 1007.7 1007.7 5.0
27/02:00am 6.7 3.3 6.0 95 0.3 W 13 15 7 8 1007.5 1007.5 5.0
27/01:30am 7.0 3.6 6.1 94 0.4 W 13 17 7 9 1007.3 1007.3 5.0
27/01:00am 7.4 3.7 6.3 93 0.5 W 15 19 8 10 1007.3 1007.3 5.0
27/12:30am 7.6 3.6 6.5 93 0.5 W 17 20 9 11 1007.4 1007.4 5.0
27/12:00am 7.8 3.8 6.7 93 0.5 W 17 22 9 12 1007.5 1007.5 5.0
 
Date/Time
EST
Temp
°C
App
Temp
°C
Dew
Point
Rel
Hum
%
Delta-T
°C
Wind Press
QNH
hPa
Press
MSL
hPa
Rain
since 9 am
mm
Dir
 
Spd
km/h
Gust
km/h
Spd
kts
Gust
kts
26/11:30pm 8.0 3.7 6.8 92 0.6 W 19 26 10 14 1007.4 1007.4 5.0
26/11:00pm 7.9 4.4 7.1 95 0.4 W 15 19 8 10 1007.2 1007.2 5.0
26/10:30pm 8.0 5.4 7.6 97 0.2 W 11 15 6 8 1007.1 1007.1 5.0
26/10:00pm 8.5 5.5 7.9 96 0.3 WSW 13 17 7 9 1007.1 1007.1 5.0
26/09:30pm 8.7 5.7 7.9 95 0.4 W 13 19 7 10 1007.1 1007.1 5.0
26/09:00pm 9.2 5.5 7.8 91 0.7 W 17 22 9 12 1007.0 1007.0 5.0
26/08:30pm 9.4 5.3 7.7 89 0.8 WSW 19 26 10 14 1006.4 1006.5 5.0
26/08:00pm 9.7 6.0 8.1 90 0.8 WSW 17 20 9 11 1006.1 1006.2 5.0
26/07:30pm 10.6 5.3 8.5 87 1.0 WSW 26 37 14 20 1005.8 1005.8 5.0
26/07:00pm 10.4 6.3 8.8 90 0.8 WSW 20 30 11 16 1005.5 1005.5 5.0
26/06:30pm 10.5 6.5 9.1 91 0.7 WSW 20 26 11 14 1005.0 1005.0 5.0
26/06:00pm 10.6 6.9 9.5 93 0.6 WSW 19 24 10 13 1004.4 1004.4 5.0

Other Formats:

Comma delimited format used in spreadsheet applications
http://www.bom.gov.au/fwo/IDN60801/IDN60801.94862.axf

JavaScript Object Notation format (JSON) in row-major order
http://www.bom.gov.au/fwo/IDN60801/IDN60801.94862.json